createdAt,value
2018-10-11T07:34:03.433Z,63.30
2018-10-11T07:36:36.093Z,65.30
2018-10-11T07:39:12.661Z,65.60
2018-10-11T07:41:45.012Z,63.90
2018-10-11T07:44:16.907Z,64.10
2018-10-11T07:46:50.053Z,63.90
2018-10-11T07:49:22.186Z,63.50
2018-10-11T07:51:54.456Z,63.80
2018-10-11T07:54:32.282Z,63.60
2018-10-11T07:57:04.543Z,64.20
2018-10-11T07:59:36.279Z,63.40
2018-10-11T08:02:08.636Z,62.70
2018-10-11T08:04:40.905Z,62.10
2018-10-11T08:07:13.062Z,62.30
2018-10-11T08:09:44.938Z,62.50
2018-10-11T08:12:17.102Z,62.40
2018-10-11T08:14:49.240Z,61.80
2018-10-11T08:17:21.295Z,61.70
2018-10-11T08:19:53.075Z,61.20
2018-10-11T08:22:26.104Z,60.10
2018-10-11T08:24:58.138Z,60.00
2018-10-11T08:27:30.360Z,59.30
2018-10-11T08:30:02.361Z,59.40
2018-10-11T08:32:34.116Z,59.60
2018-10-11T08:35:06.554Z,59.40
2018-10-11T08:37:39.235Z,59.20
2018-10-11T08:40:11.518Z,58.40
2018-10-11T08:42:43.722Z,58.80
2018-10-11T08:45:16.460Z,58.50
2018-10-11T08:47:48.477Z,57.70
2018-10-11T08:50:20.640Z,57.60
2018-10-11T08:52:52.330Z,57.10
2018-10-11T08:55:24.232Z,55.90
2018-10-11T08:57:56.101Z,54.50
2018-10-11T09:00:27.901Z,56.00
2018-10-11T09:03:00.621Z,55.20
2018-10-11T09:05:32.477Z,54.90
2018-10-11T09:08:04.590Z,56.60
2018-10-11T09:10:38.516Z,57.00
2018-10-11T09:13:09.169Z,57.70
2018-10-11T09:15:41.400Z,57.80
2018-10-11T09:18:13.096Z,59.00
2018-10-11T09:20:45.319Z,58.80
2018-10-11T09:23:17.530Z,58.80
2018-10-11T09:25:49.708Z,58.70
2018-10-11T09:28:21.773Z,57.70
2018-10-11T09:30:53.576Z,57.10
2018-10-11T09:33:25.333Z,56.50
2018-10-11T09:35:58.129Z,56.60
2018-10-11T09:38:29.857Z,57.30
2018-10-11T09:41:01.734Z,55.80
2018-10-11T09:43:33.965Z,56.60
2018-10-11T09:46:06.106Z,56.80
2018-10-11T09:48:38.129Z,56.90
2018-10-11T09:51:11.416Z,57.10
2018-10-11T09:53:43.233Z,57.90
2018-10-11T09:56:15.057Z,58.60
2018-10-11T09:58:47.056Z,56.90
2018-10-11T10:01:24.365Z,56.50
2018-10-11T10:03:56.427Z,55.30
2018-10-11T10:06:28.404Z,54.00
2018-10-11T10:09:00.695Z,52.20
2018-10-11T10:11:32.544Z,49.70
2018-10-11T10:14:04.460Z,50.50
2018-10-11T10:16:36.618Z,53.20
2018-10-11T10:19:09.639Z,51.00
2018-10-11T10:21:41.338Z,51.90
2018-10-11T10:24:13.067Z,54.20
2018-10-11T10:26:44.799Z,53.70
2018-10-11T10:29:16.705Z,53.40
2018-10-11T10:31:48.904Z,53.80
2018-10-11T10:34:21.339Z,54.60
2018-10-11T10:36:53.294Z,54.60
2018-10-11T10:39:25.614Z,53.70
2018-10-11T10:41:57.426Z,53.80
2018-10-11T10:44:30.505Z,54.20
2018-10-11T10:47:02.485Z,54.30
2018-10-11T10:49:34.286Z,53.70
2018-10-11T10:52:06.250Z,52.90
2018-10-11T10:54:38.386Z,53.50
2018-10-11T10:57:12.131Z,53.80
2018-10-11T10:59:44.274Z,53.10
2018-10-11T11:02:16.611Z,52.60
2018-10-11T11:04:48.427Z,51.30
2018-10-11T11:07:20.352Z,50.70
2018-10-11T11:09:52.105Z,50.90
2018-10-11T11:12:24.172Z,52.10
2018-10-11T11:14:56.161Z,50.90
2018-10-11T11:17:27.964Z,49.90
2018-10-11T11:19:59.789Z,50.10
2018-10-11T11:22:31.797Z,49.70
2018-10-11T11:25:03.779Z,48.70
2018-10-11T11:27:35.576Z,48.70
2018-10-11T11:30:07.609Z,48.90
2018-10-11T11:32:39.810Z,49.70
2018-10-11T11:35:11.854Z,49.40
2018-10-11T11:37:44.732Z,48.90
2018-10-11T11:40:16.735Z,49.20
2018-10-11T11:42:48.729Z,49.50
2018-10-11T11:45:20.760Z,49.50
2018-10-11T11:47:52.702Z,48.80
2018-10-11T11:50:25.011Z,49.10
2018-10-11T11:52:57.930Z,49.40
2018-10-11T11:55:29.972Z,49.70
2018-10-11T11:58:02.111Z,50.20
2018-10-11T12:00:34.064Z,49.80
2018-10-11T12:03:06.072Z,49.60
2018-10-11T12:05:38.145Z,49.30
2018-10-11T12:08:10.243Z,49.60
2018-10-11T12:10:42.770Z,48.50
2018-10-11T12:13:14.994Z,48.60
2018-10-11T12:15:47.214Z,47.70
2018-10-11T12:18:19.752Z,47.60
2018-10-11T12:20:51.870Z,48.50
2018-10-11T12:23:23.771Z,48.00
2018-10-11T12:25:56.337Z,46.90
2018-10-11T12:28:28.583Z,46.60
2018-10-11T12:31:00.876Z,45.60
2018-10-11T12:33:32.796Z,46.10
2018-10-11T12:36:05.841Z,46.40
2018-10-11T12:38:38.071Z,46.60
2018-10-11T12:41:10.518Z,46.70
2018-10-11T12:43:42.799Z,46.50
2018-10-11T12:46:13.931Z,47.10
2018-10-11T12:48:44.871Z,47.60
2018-10-11T12:51:15.883Z,47.60
2018-10-11T12:53:48.532Z,49.70
2018-10-11T12:56:18.040Z,49.70
2018-10-11T12:58:49.064Z,49.60
2018-10-11T13:01:22.977Z,49.80
2018-10-11T13:03:51.568Z,50.20
2018-10-11T13:06:22.761Z,49.40
2018-10-11T13:08:53.784Z,49.70
2018-10-11T13:11:24.774Z,49.30
2018-10-11T13:13:57.517Z,49.60
2018-10-11T13:16:28.432Z,50.20
2018-10-11T13:18:59.292Z,50.10
2018-10-11T13:21:30.454Z,50.40
2018-10-11T13:24:01.441Z,50.70
2018-10-11T13:26:32.350Z,51.70
2018-10-11T13:29:03.370Z,52.20
2018-10-11T13:31:34.308Z,52.80
2018-10-11T13:34:05.323Z,52.90
2018-10-11T13:36:36.217Z,53.20
2018-10-11T13:39:09.291Z,53.00
2018-10-11T13:41:40.578Z,53.10
2018-10-11T13:44:11.664Z,53.30
2018-10-11T13:46:42.885Z,53.80
2018-10-11T13:49:13.832Z,53.90
2018-10-11T13:51:44.809Z,54.10
2018-10-11T13:54:18.958Z,54.00
2018-10-11T13:56:53.880Z,54.20
2018-10-11T13:59:21.622Z,54.40
2018-10-11T14:01:52.679Z,54.60
2018-10-11T14:04:23.879Z,54.80
2018-10-11T14:06:54.796Z,54.60
2018-10-11T14:09:28.034Z,54.30
2018-10-11T14:12:08.745Z,54.20
2018-10-11T14:14:40.197Z,54.50
2018-10-11T14:17:11.256Z,54.90
2018-10-11T14:19:43.596Z,54.70
2018-10-11T14:22:15.078Z,54.70
2018-10-11T14:24:52.568Z,54.60
2018-10-11T14:27:25.335Z,55.40
2018-10-11T14:30:00.591Z,55.70
2018-10-11T14:32:38.853Z,55.90
2018-10-11T14:35:17.619Z,56.10
2018-10-11T14:37:54.610Z,56.40
2018-10-11T14:40:36.700Z,57.10
2018-10-11T14:43:08.114Z,57.30
2018-10-11T14:45:42.063Z,57.40
2018-10-11T14:48:14.921Z,57.70
2018-10-11T14:50:50.763Z,57.80
2018-10-11T14:53:24.017Z,57.90
2018-10-11T14:55:57.882Z,58.20
2018-10-11T14:58:32.060Z,58.60
2018-10-11T15:01:06.534Z,58.80
2018-10-11T15:03:43.205Z,59.10
2018-10-11T15:06:15.137Z,59.70
2018-10-11T15:08:46.286Z,59.80
2018-10-11T15:11:18.334Z,59.90
2018-10-11T15:13:49.579Z,60.40
2018-10-11T15:16:20.481Z,60.80
2018-10-11T15:18:51.539Z,61.10
2018-10-11T15:21:22.578Z,61.20
2018-10-11T15:23:53.690Z,61.50
2018-10-11T15:26:24.657Z,62.00
2018-10-11T15:28:55.682Z,62.70
2018-10-11T15:31:26.732Z,62.60
2018-10-11T15:33:57.793Z,63.40
2018-10-11T15:36:28.710Z,63.70
2018-10-11T15:39:14.041Z,63.90
2018-10-11T15:41:45.229Z,64.30
2018-10-11T15:44:16.463Z,64.50
2018-10-11T15:46:47.685Z,64.70
2018-10-11T15:49:18.630Z,65.00
2018-10-11T15:51:49.685Z,65.00
2018-10-11T15:54:20.561Z,65.40
2018-10-11T15:56:51.667Z,65.60
2018-10-11T15:59:22.647Z,65.70
2018-10-11T16:01:53.844Z,66.00
2018-10-11T16:04:24.993Z,66.40
2018-10-11T16:06:56.104Z,66.70
2018-10-11T16:09:27.205Z,67.10
2018-10-11T16:11:58.347Z,67.70
2018-10-11T16:14:29.272Z,68.10
2018-10-11T16:17:00.247Z,68.30
2018-10-11T16:19:31.368Z,68.20
2018-10-11T16:22:02.499Z,68.50
2018-10-11T16:24:33.760Z,68.80
2018-10-11T16:27:04.887Z,69.00
2018-10-11T16:29:36.020Z,69.50
2018-10-11T16:32:07.145Z,70.00
2018-10-11T16:34:38.482Z,70.20
2018-10-11T16:37:10.015Z,70.40
2018-10-11T16:39:41.079Z,70.60
2018-10-11T16:42:12.560Z,70.80
2018-10-11T16:44:43.844Z,71.00
2018-10-11T16:47:14.958Z,71.30
2018-10-11T16:49:46.032Z,71.60
2018-10-11T16:52:16.864Z,72.00
2018-10-11T16:54:47.975Z,72.40
2018-10-11T16:57:18.968Z,72.50
2018-10-11T16:59:49.946Z,72.40
2018-10-11T17:02:21.102Z,72.20
2018-10-11T17:04:52.222Z,72.40
2018-10-11T17:07:23.251Z,72.30
2018-10-11T17:09:54.592Z,72.40
2018-10-11T17:12:25.746Z,72.60
2018-10-11T17:14:56.690Z,72.80
2018-10-11T17:17:28.167Z,72.90
2018-10-11T17:19:59.200Z,72.90
2018-10-11T17:22:30.338Z,73.20
2018-10-11T17:25:01.520Z,73.50
2018-10-11T17:27:32.592Z,73.80
2018-10-11T17:30:03.675Z,73.70
2018-10-11T17:32:34.731Z,73.60
2018-10-11T17:35:05.930Z,73.40
2018-10-11T17:37:37.084Z,73.60
2018-10-11T17:40:08.279Z,74.00
2018-10-11T17:42:39.485Z,74.10
2018-10-11T17:45:11.695Z,74.10
2018-10-11T17:47:43.079Z,74.20
2018-10-11T17:50:14.549Z,74.20
2018-10-11T17:52:45.783Z,74.30
2018-10-11T17:55:17.164Z,74.20
2018-10-11T17:57:48.272Z,74.40
2018-10-11T18:00:19.482Z,74.20
2018-10-11T18:02:50.475Z,74.20
2018-10-11T18:05:21.713Z,74.10
2018-10-11T18:07:53.330Z,74.50
2018-10-11T18:10:24.686Z,74.00
2018-10-11T18:12:55.663Z,73.90
2018-10-11T18:15:26.671Z,73.90
2018-10-11T18:17:57.711Z,74.10
2018-10-11T18:20:28.877Z,74.30
2018-10-11T18:23:00.183Z,74.40
2018-10-11T18:25:31.351Z,74.50
2018-10-11T18:28:02.474Z,74.80
2018-10-11T18:30:33.607Z,74.80
2018-10-11T18:33:04.858Z,75.20
2018-10-11T18:35:35.919Z,75.30
2018-10-11T18:38:06.965Z,75.40
2018-10-11T18:40:38.052Z,75.40
2018-10-11T18:43:09.111Z,75.70
2018-10-11T18:45:40.318Z,75.70
2018-10-11T18:48:11.465Z,76.40
2018-10-11T18:50:42.658Z,75.80
2018-10-11T18:53:13.729Z,76.10
2018-10-11T18:55:44.804Z,77.00
2018-10-11T18:58:15.929Z,76.70
2018-10-11T19:00:47.032Z,76.50
2018-10-11T19:03:17.940Z,76.50
2018-10-11T19:05:49.029Z,76.70
2018-10-11T19:08:20.323Z,76.70
2018-10-11T19:10:51.447Z,76.70
2018-10-11T19:13:22.505Z,77.00
2018-10-11T19:15:53.681Z,77.40
2018-10-11T19:18:24.867Z,77.40
2018-10-11T19:20:56.024Z,77.60
2018-10-11T19:23:27.164Z,77.60
2018-10-11T19:25:58.260Z,77.50
2018-10-11T19:28:29.395Z,77.20
2018-10-11T19:31:00.608Z,77.10
2018-10-11T19:33:31.734Z,77.00
2018-10-11T19:36:04.184Z,77.70
2018-10-11T19:38:35.665Z,77.30
2018-10-11T19:41:06.643Z,77.50
2018-10-11T19:43:37.791Z,77.60
2018-10-11T19:46:09.082Z,77.70
2018-10-11T19:48:39.998Z,77.60
2018-10-11T19:51:11.312Z,77.70
2018-10-11T19:53:42.581Z,77.80
2018-10-11T19:56:13.947Z,77.80
2018-10-11T19:58:45.109Z,77.70
2018-10-11T20:01:16.062Z,77.80
2018-10-11T20:03:48.642Z,77.80
2018-10-11T20:06:21.762Z,78.00
2018-10-11T20:08:54.556Z,78.00
2018-10-11T20:11:27.240Z,78.10
2018-10-11T20:14:00.977Z,78.20
2018-10-11T20:16:34.234Z,78.20
2018-10-11T20:19:07.297Z,78.30
2018-10-11T20:21:41.510Z,78.50
2018-10-11T20:24:15.203Z,78.40
2018-10-11T20:26:47.914Z,78.60
2018-10-11T20:29:20.839Z,78.80
2018-10-11T20:31:53.654Z,79.00
2018-10-11T20:34:28.783Z,79.00
2018-10-11T20:37:01.350Z,79.30
2018-10-11T20:39:35.241Z,79.20
2018-10-11T20:42:08.991Z,79.40
2018-10-11T20:44:43.422Z,79.60
2018-10-11T20:47:15.854Z,79.80
2018-10-11T20:49:48.844Z,79.80
2018-10-11T20:52:21.237Z,79.80
2018-10-11T20:54:54.178Z,79.70
2018-10-11T20:57:26.862Z,79.70
2018-10-11T21:00:01.253Z,79.70
2018-10-11T21:02:34.923Z,79.70
2018-10-11T21:05:08.234Z,79.70
2018-10-11T21:07:41.535Z,79.80
2018-10-11T21:10:16.174Z,79.80
2018-10-11T21:12:48.954Z,80.00
2018-10-11T21:15:21.357Z,80.20
2018-10-11T21:17:54.740Z,80.20
2018-10-11T21:20:27.769Z,80.50
2018-10-11T21:23:02.971Z,80.20
2018-10-11T21:25:37.490Z,80.20
2018-10-11T21:28:10.353Z,80.30
2018-10-11T21:30:42.918Z,80.30
2018-10-11T21:33:17.216Z,80.40
2018-10-11T21:35:50.477Z,80.30
2018-10-11T21:38:22.782Z,80.40
2018-10-11T21:40:55.705Z,80.50
2018-10-11T21:43:28.346Z,80.30
2018-10-11T21:46:00.913Z,80.30
2018-10-11T21:48:33.575Z,80.30
2018-10-11T21:51:06.791Z,80.00
2018-10-11T21:53:40.044Z,79.80
2018-10-11T21:56:13.441Z,80.00
2018-10-11T21:58:46.962Z,80.20
2018-10-11T22:01:23.281Z,80.10
2018-10-11T22:03:57.642Z,80.20
2018-10-11T22:06:30.170Z,80.40
2018-10-11T22:09:03.736Z,80.60
2018-10-11T22:11:36.412Z,80.90
2018-10-11T22:14:09.160Z,81.20
2018-10-11T22:16:42.433Z,81.20
2018-10-11T22:19:15.013Z,81.20
2018-10-11T22:21:49.321Z,81.00
2018-10-11T22:24:21.953Z,81.10
2018-10-11T22:26:54.231Z,81.20
2018-10-11T22:29:27.685Z,80.90
2018-10-11T22:32:00.153Z,81.10
2018-10-11T22:34:33.275Z,81.40
2018-10-11T22:37:06.499Z,81.60
2018-10-11T22:39:42.146Z,81.70
2018-10-11T22:42:15.065Z,81.80
2018-10-11T22:44:48.067Z,82.00
2018-10-11T22:47:20.565Z,82.20
2018-10-11T22:49:53.553Z,82.50
2018-10-11T22:52:25.984Z,83.50
2018-10-11T22:54:59.301Z,83.00
2018-10-11T22:57:31.612Z,84.00
2018-10-11T23:00:02.592Z,84.90
2018-10-11T23:02:33.557Z,84.90
2018-10-11T23:05:04.564Z,84.60
2018-10-11T23:07:48.472Z,84.30
2018-10-11T23:10:19.665Z,84.50
2018-10-11T23:12:50.709Z,84.40
2018-10-11T23:15:21.805Z,83.80
2018-10-11T23:17:52.569Z,83.80
2018-10-11T23:20:23.442Z,84.00
2018-10-11T23:22:54.193Z,83.80
2018-10-11T23:25:24.901Z,84.00
2018-10-11T23:27:55.834Z,84.00
2018-10-11T23:30:26.694Z,83.90
2018-10-11T23:32:57.639Z,84.00
2018-10-11T23:35:28.583Z,83.50
2018-10-11T23:37:59.433Z,83.60
2018-10-11T23:40:30.266Z,84.30
2018-10-11T23:43:01.122Z,84.40
2018-10-11T23:45:32.630Z,83.40
2018-10-11T23:48:03.379Z,81.70
2018-10-11T23:50:34.321Z,82.20
2018-10-11T23:53:05.165Z,81.80
2018-10-11T23:55:36.012Z,81.70
2018-10-11T23:58:06.985Z,81.40
